createdAt,value
2022-10-23T00:00:07.931Z,24.67
2022-10-23T00:02:42.199Z,24.92
2022-10-23T00:05:16.144Z,25.77
2022-10-23T00:07:53.234Z,25.67
2022-10-23T00:10:28.830Z,24.77
2022-10-23T00:13:03.856Z,24.80
2022-10-23T00:15:38.494Z,18.98
2022-10-23T00:18:12.175Z,20.42
2022-10-23T00:20:45.904Z,25.38
2022-10-23T00:23:19.435Z,26.80
2022-10-23T00:25:53.375Z,29.52
2022-10-23T00:28:28.337Z,21.60
2022-10-23T00:31:03.266Z,21.60
2022-10-23T00:33:37.449Z,28.75
2022-10-23T00:36:14.122Z,29.73
2022-10-23T00:38:47.985Z,30.15
2022-10-23T00:41:23.889Z,20.33
2022-10-23T00:44:06.640Z,26.63
2022-10-23T00:46:40.835Z,29.17
2022-10-23T00:49:15.734Z,27.10
2022-10-23T00:51:53.790Z,20.98
2022-10-23T00:54:30.527Z,23.17
2022-10-23T00:57:08.221Z,22.25
2022-10-23T00:59:43.105Z,28.95
2022-10-23T01:02:17.195Z,20.33
2022-10-23T01:04:50.850Z,24.13
2022-10-23T01:07:30.413Z,26.55
2022-10-23T01:10:10.176Z,22.73
2022-10-23T01:12:51.506Z,30.50
2022-10-23T01:15:32.364Z,25.20
2022-10-23T01:18:12.847Z,34.25
2022-10-23T01:20:51.659Z,22.63
2022-10-23T01:23:47.626Z,24.85
2022-10-23T01:26:33.268Z,27.27
2022-10-23T01:29:16.778Z,26.00
2022-10-23T01:31:54.967Z,21.98
2022-10-23T01:34:33.450Z,22.42
2022-10-23T01:37:13.231Z,22.10
2022-10-23T01:39:53.483Z,25.02
2022-10-23T01:42:31.832Z,24.95
2022-10-23T01:45:12.062Z,24.00
2022-10-23T01:47:46.151Z,23.23
2022-10-23T01:50:22.932Z,27.27
2022-10-23T01:52:56.725Z,31.80
2022-10-23T01:55:32.556Z,23.85
2022-10-23T01:58:08.556Z,26.25
2022-10-23T02:00:46.415Z,25.35
2022-10-23T02:03:21.463Z,26.80
2022-10-23T02:05:55.176Z,26.25
2022-10-23T02:08:28.945Z,23.80
2022-10-23T02:11:09.191Z,27.88
2022-10-23T02:13:47.689Z,24.40
2022-10-23T02:16:30.153Z,26.45
2022-10-23T02:19:14.039Z,24.95
2022-10-23T02:21:53.946Z,24.63
2022-10-23T02:24:34.420Z,29.35
2022-10-23T02:27:14.064Z,23.83
2022-10-23T02:29:51.187Z,18.27
2022-10-23T02:32:29.079Z,22.80
2022-10-23T02:35:02.940Z,25.23
2022-10-23T02:37:36.801Z,23.40
2022-10-23T02:40:12.164Z,26.42
2022-10-23T02:42:51.962Z,25.58
2022-10-23T02:45:32.852Z,19.77
2022-10-23T02:48:15.529Z,26.15
2022-10-23T02:50:55.419Z,24.20
2022-10-23T02:53:38.181Z,21.52
2022-10-23T02:56:18.808Z,23.75
2022-10-23T02:59:00.764Z,23.25
2022-10-23T03:01:42.151Z,27.75
2022-10-23T03:04:20.320Z,23.33
2022-10-23T03:06:54.020Z,24.23
2022-10-23T03:09:28.113Z,31.05
2022-10-23T03:12:01.602Z,32.22
2022-10-23T03:14:35.348Z,24.60
2022-10-23T03:17:08.801Z,22.27
2022-10-23T03:19:43.918Z,25.20
2022-10-23T03:22:17.666Z,25.10
2022-10-23T03:24:51.369Z,31.40
2022-10-23T03:27:24.887Z,25.30
2022-10-23T03:29:58.712Z,21.88
2022-10-23T03:32:32.207Z,27.23
2022-10-23T03:35:08.300Z,25.95
2022-10-23T03:37:41.969Z,20.25
2022-10-23T03:40:15.917Z,24.77
2022-10-23T03:42:49.429Z,22.52
2022-10-23T03:45:23.112Z,22.08
2022-10-23T03:47:56.542Z,27.20
2022-10-23T03:50:31.568Z,25.80
2022-10-23T03:53:05.092Z,20.92
2022-10-23T03:55:38.795Z,21.88
2022-10-23T03:58:12.499Z,22.65
2022-10-23T04:00:46.264Z,21.48
2022-10-23T04:03:19.761Z,19.75
2022-10-23T04:05:54.813Z,24.05
2022-10-23T04:08:28.406Z,19.33
2022-10-23T04:11:02.235Z,26.15
2022-10-23T04:13:35.771Z,24.58
2022-10-23T04:16:09.508Z,18.55
2022-10-23T04:18:43.107Z,18.48
2022-10-23T04:21:18.363Z,22.98
2022-10-23T04:23:51.823Z,24.40
2022-10-23T04:26:25.621Z,16.77
2022-10-23T04:28:59.085Z,22.55
2022-10-23T04:31:32.763Z,22.17
2022-10-23T04:36:46.431Z,16.13
2022-10-23T04:39:20.128Z,17.83
2022-10-23T04:41:53.749Z,20.00
2022-10-23T04:44:27.331Z,16.58
2022-10-23T04:47:01.037Z,20.55
2022-10-23T04:49:34.636Z,14.38
2022-10-23T04:52:09.781Z,18.73
2022-10-23T04:54:43.291Z,13.98
2022-10-23T04:57:17.006Z,23.55
2022-10-23T04:59:50.538Z,15.95
2022-10-23T05:02:24.462Z,17.95
2022-10-23T05:04:58.024Z,17.95
2022-10-23T05:07:33.074Z,17.42
2022-10-23T05:10:07.625Z,18.10
2022-10-23T05:12:41.436Z,19.73
2022-10-23T05:15:14.883Z,15.90
2022-10-23T05:17:53.854Z,15.93
2022-10-23T05:20:32.044Z,14.93
2022-10-23T05:23:10.435Z,17.85
2022-10-23T05:25:43.874Z,20.05
2022-10-23T05:28:17.567Z,20.95
2022-10-23T05:30:51.380Z,17.45
2022-10-23T05:33:25.152Z,17.38
2022-10-23T05:35:59.763Z,17.00
2022-10-23T05:38:36.672Z,20.50
2022-10-23T05:41:10.352Z,20.25
2022-10-23T05:43:44.080Z,19.63
2022-10-23T05:46:17.548Z,20.42
2022-10-23T05:48:52.239Z,16.75
2022-10-23T05:51:25.809Z,19.23
2022-10-23T05:54:00.801Z,17.65
2022-10-23T05:56:34.727Z,22.13
2022-10-23T05:59:09.044Z,25.48
2022-10-23T06:01:42.842Z,22.15
2022-10-23T06:04:16.584Z,21.08
2022-10-23T06:06:50.216Z,17.75
2022-10-23T06:09:25.373Z,23.27
2022-10-23T06:11:58.924Z,30.85
2022-10-23T06:14:32.685Z,17.75
2022-10-23T06:17:06.466Z,20.98
2022-10-23T06:19:40.300Z,17.90
2022-10-23T06:22:14.070Z,18.05
2022-10-23T06:24:49.196Z,15.40
2022-10-23T06:27:22.796Z,20.67
2022-10-23T06:29:56.514Z,20.63
2022-10-23T06:32:32.696Z,18.90
2022-10-23T06:35:07.420Z,14.63
2022-10-23T06:37:41.172Z,22.17
2022-10-23T06:40:16.352Z,17.65
2022-10-23T06:42:49.810Z,16.77
2022-10-23T06:45:23.547Z,17.15
2022-10-23T06:47:57.059Z,15.85
2022-10-23T06:50:32.037Z,18.17
2022-10-23T06:53:06.109Z,16.63
2022-10-23T06:55:41.233Z,17.98
2022-10-23T06:58:14.903Z,16.73
2022-10-23T07:00:48.609Z,13.55
2022-10-23T07:03:22.207Z,11.77
2022-10-23T07:05:56.844Z,14.48
2022-10-23T07:08:31.013Z,15.80
2022-10-23T07:11:08.264Z,15.50
2022-10-23T07:13:42.580Z,13.38
2022-10-23T07:16:18.902Z,14.20
2022-10-23T07:18:59.304Z,18.13
2022-10-23T07:21:34.885Z,12.57
2022-10-23T07:24:10.184Z,17.10
2022-10-23T07:26:45.289Z,16.98
2022-10-23T07:29:18.808Z,13.95
2022-10-23T07:31:52.467Z,9.90
2022-10-23T07:34:25.999Z,14.70
2022-10-23T07:36:59.921Z,13.77
2022-10-23T07:39:33.375Z,17.52
2022-10-23T07:42:10.495Z,15.52
2022-10-23T07:44:44.382Z,26.20
2022-10-23T07:47:18.168Z,18.08
2022-10-23T07:49:52.629Z,13.13
2022-10-23T07:52:26.506Z,17.27
2022-10-23T07:55:00.389Z,13.30
2022-10-23T07:57:35.436Z,16.92
2022-10-23T08:00:11.071Z,14.07
2022-10-23T08:02:44.934Z,13.82
2022-10-23T08:05:21.458Z,17.70
2022-10-23T08:07:55.360Z,10.93
2022-10-23T08:10:28.937Z,9.48
2022-10-23T08:13:04.059Z,11.93
2022-10-23T08:15:37.992Z,16.20
2022-10-23T08:18:11.876Z,11.43
2022-10-23T08:20:47.793Z,15.35
2022-10-23T08:23:21.691Z,15.02
2022-10-23T08:26:00.212Z,11.30
2022-10-23T08:28:35.513Z,15.95
2022-10-23T08:31:10.669Z,9.68
2022-10-23T08:33:44.593Z,11.35
2022-10-23T08:36:21.261Z,9.70
2022-10-23T08:38:57.020Z,9.63
2022-10-23T08:41:35.622Z,7.38
2022-10-23T08:44:20.743Z,11.00
2022-10-23T08:47:01.953Z,10.75
2022-10-23T08:49:46.086Z,9.35
2022-10-23T08:52:30.010Z,10.65
2022-10-23T08:55:16.455Z,5.03
2022-10-23T08:57:56.298Z,11.65
2022-10-23T09:00:32.003Z,8.90
2022-10-23T09:03:06.595Z,10.98
2022-10-23T09:06:01.739Z,10.05
2022-10-23T09:08:45.259Z,13.52
2022-10-23T09:11:28.863Z,9.43
2022-10-23T09:14:27.930Z,13.90
2022-10-23T09:17:18.660Z,10.88
2022-10-23T09:20:02.967Z,8.85
2022-10-23T09:22:36.722Z,9.98
2022-10-23T09:25:12.338Z,9.82
2022-10-23T09:27:50.638Z,12.55
2022-10-23T09:30:33.053Z,8.13
2022-10-23T09:33:19.553Z,8.70
2022-10-23T09:35:56.479Z,8.50
2022-10-23T09:38:35.093Z,8.40
2022-10-23T09:41:15.139Z,9.57
2022-10-23T09:44:00.348Z,12.15
2022-10-23T09:46:41.161Z,10.25
2022-10-23T09:49:21.987Z,12.02
2022-10-23T09:52:01.812Z,8.88
2022-10-23T09:54:39.040Z,9.00
2022-10-23T09:57:23.868Z,8.10
2022-10-23T10:00:00.082Z,18.70
2022-10-23T10:02:35.800Z,12.23
2022-10-23T10:05:24.099Z,8.32
2022-10-23T10:08:06.722Z,8.60
2022-10-23T10:10:46.134Z,10.90
2022-10-23T10:13:37.535Z,8.57
2022-10-23T10:16:15.325Z,10.00
2022-10-23T10:18:56.413Z,10.55
2022-10-23T10:21:37.978Z,8.45
2022-10-23T10:24:18.312Z,10.90
2022-10-23T10:26:59.298Z,7.35
2022-10-23T10:29:51.391Z,10.80
2022-10-23T10:32:36.718Z,8.10
2022-10-23T10:35:26.565Z,8.77
2022-10-23T10:38:32.378Z,12.32
2022-10-23T10:41:26.204Z,10.35
2022-10-23T10:44:16.992Z,9.32
2022-10-23T10:46:57.632Z,11.80
2022-10-23T10:49:37.511Z,10.27
2022-10-23T10:52:18.071Z,9.57
2022-10-23T10:55:03.545Z,9.20
2022-10-23T10:57:41.172Z,11.73
2022-10-23T11:00:17.945Z,12.32
2022-10-23T11:02:56.272Z,8.35
2022-10-23T11:05:33.317Z,10.88
2022-10-23T11:08:12.003Z,7.72
2022-10-23T11:10:51.322Z,10.05
2022-10-23T11:13:28.434Z,12.43
2022-10-23T11:16:06.781Z,10.82
2022-10-23T11:18:43.779Z,11.30
2022-10-23T11:21:27.747Z,12.60
2022-10-23T11:24:53.451Z,15.52
2022-10-23T11:28:03.312Z,9.50
2022-10-23T11:30:47.627Z,9.15
2022-10-23T11:34:10.043Z,9.93
2022-10-23T11:36:46.953Z,8.80
2022-10-23T11:39:23.563Z,9.73
2022-10-23T11:41:58.991Z,13.02
2022-10-23T11:44:46.185Z,13.75
2022-10-23T11:47:41.608Z,8.68
2022-10-23T11:50:24.724Z,9.23
2022-10-23T11:53:14.995Z,6.97
2022-10-23T11:56:01.410Z,10.80
2022-10-23T11:58:44.530Z,8.23
2022-10-23T12:01:31.438Z,7.65
2022-10-23T12:04:17.620Z,7.13
2022-10-23T12:06:53.955Z,10.73
2022-10-23T12:09:42.354Z,9.38
2022-10-23T12:12:28.163Z,6.63
2022-10-23T12:15:21.203Z,13.50
2022-10-23T12:18:08.775Z,8.25
2022-10-23T12:20:49.402Z,17.67
2022-10-23T12:23:48.073Z,7.07
2022-10-23T12:26:43.456Z,14.38
2022-10-23T12:29:27.716Z,10.20
2022-10-23T12:32:14.944Z,13.43
2022-10-23T12:35:14.285Z,12.00
2022-10-23T12:38:10.725Z,9.43
2022-10-23T12:40:46.191Z,6.47
2022-10-23T12:43:26.967Z,11.15
2022-10-23T12:46:05.945Z,8.18
2022-10-23T12:48:49.116Z,10.68
2022-10-23T12:51:27.422Z,7.30
2022-10-23T12:54:01.436Z,4.28
2022-10-23T12:56:38.933Z,9.82
2022-10-23T12:59:18.472Z,10.05
2022-10-23T13:01:53.084Z,7.95
2022-10-23T13:04:30.495Z,7.43
2022-10-23T13:07:05.714Z,11.73
2022-10-23T13:09:42.078Z,9.25
2022-10-23T13:12:22.384Z,9.18
2022-10-23T13:14:59.041Z,7.43
2022-10-23T13:17:38.853Z,9.32
2022-10-23T13:20:22.128Z,7.82
2022-10-23T13:23:02.194Z,11.10
2022-10-23T13:25:38.443Z,12.70
2022-10-23T13:28:24.900Z,9.90
2022-10-23T13:31:24.071Z,6.65
2022-10-23T13:34:17.579Z,10.07
2022-10-23T13:37:00.592Z,10.32
2022-10-23T13:39:35.773Z,11.27
2022-10-23T13:42:15.223Z,10.63
2022-10-23T13:44:49.282Z,7.93
2022-10-23T13:47:23.304Z,9.82
2022-10-23T13:49:57.027Z,8.82
2022-10-23T13:52:30.650Z,8.20
2022-10-23T13:55:19.346Z,9.48
2022-10-23T13:57:52.923Z,6.55
2022-10-23T14:00:26.591Z,7.10
2022-10-23T14:03:00.224Z,6.57
2022-10-23T14:05:34.119Z,7.03
2022-10-23T14:08:07.874Z,9.85
2022-10-23T14:10:43.029Z,10.20
2022-10-23T14:13:17.088Z,11.13
2022-10-23T14:15:54.383Z,11.23
2022-10-23T14:18:27.945Z,6.88
2022-10-23T14:21:02.143Z,10.07
2022-10-23T14:23:36.209Z,8.23
2022-10-23T14:26:13.291Z,8.00
2022-10-23T14:28:46.828Z,13.95
2022-10-23T14:31:20.923Z,8.07
2022-10-23T14:33:56.893Z,6.45
2022-10-23T14:36:38.685Z,7.18
2022-10-23T14:39:24.220Z,13.63
2022-10-23T14:41:59.372Z,13.80
2022-10-23T14:44:33.887Z,10.40
2022-10-23T14:47:07.834Z,6.53
2022-10-23T14:49:42.461Z,6.10
2022-10-23T14:52:16.256Z,9.70
2022-10-23T14:54:51.557Z,18.58
2022-10-23T14:57:26.751Z,6.95
2022-10-23T15:00:00.245Z,10.70
2022-10-23T15:02:34.181Z,5.28
2022-10-23T15:05:08.299Z,9.75
2022-10-23T15:07:42.169Z,6.30
2022-10-23T15:15:29.735Z,9.55
2022-10-23T15:18:03.451Z,8.88
2022-10-23T15:20:37.132Z,12.80
2022-10-23T15:23:10.928Z,8.13
2022-10-23T15:25:44.530Z,8.10
2022-10-23T15:28:19.780Z,8.90
2022-10-23T15:30:53.910Z,8.48
2022-10-23T15:33:28.567Z,8.50
2022-10-23T15:36:02.165Z,8.77
2022-10-23T15:38:36.020Z,12.75
2022-10-23T15:41:17.009Z,11.68
2022-10-23T15:43:56.043Z,10.05
2022-10-23T15:46:29.783Z,7.75
2022-10-23T15:49:03.827Z,8.55
2022-10-23T15:51:38.167Z,6.70
2022-10-23T15:54:16.607Z,8.07
2022-10-23T15:56:52.470Z,9.57
2022-10-23T15:59:27.915Z,10.95
2022-10-23T16:02:01.776Z,9.57
2022-10-23T16:04:36.339Z,13.50
2022-10-23T16:07:10.059Z,8.27
2022-10-23T16:09:43.949Z,11.57
2022-10-23T16:12:18.331Z,12.48
2022-10-23T16:14:53.494Z,10.63
2022-10-23T16:17:26.946Z,10.00
2022-10-23T16:20:00.784Z,14.20
2022-10-23T16:22:34.899Z,9.18
2022-10-23T16:25:09.283Z,10.88
2022-10-23T16:27:43.170Z,7.05
2022-10-23T16:30:18.774Z,10.93
2022-10-23T16:32:52.599Z,17.65
2022-10-23T16:35:26.344Z,8.13
2022-10-23T16:37:59.929Z,10.30
2022-10-23T16:40:33.939Z,11.35
2022-10-23T16:43:07.453Z,8.40
2022-10-23T16:45:42.633Z,12.00
2022-10-23T16:48:16.189Z,13.15
2022-10-23T16:50:49.883Z,8.40
2022-10-23T16:53:26.688Z,6.97
2022-10-23T16:56:00.454Z,13.07
2022-10-23T16:58:34.570Z,10.60
2022-10-23T17:01:12.058Z,9.15
2022-10-23T17:03:50.520Z,10.15
2022-10-23T17:06:26.406Z,7.40
2022-10-23T17:09:01.416Z,9.13
2022-10-23T17:11:38.124Z,8.60
2022-10-23T17:14:16.002Z,9.93
2022-10-23T17:16:52.905Z,10.33
2022-10-23T17:19:45.521Z,14.07
2022-10-23T17:22:19.948Z,11.02
2022-10-23T17:24:54.221Z,9.35
2022-10-23T17:27:28.391Z,10.88
2022-10-23T17:30:01.965Z,11.80
2022-10-23T17:32:37.662Z,12.27
2022-10-23T17:35:11.659Z,11.77
2022-10-23T17:37:45.576Z,9.73
2022-10-23T17:40:22.748Z,9.65
2022-10-23T17:42:58.847Z,9.60
2022-10-23T17:45:35.722Z,11.75
2022-10-23T17:48:10.886Z,10.43
2022-10-23T17:50:44.687Z,8.32
2022-10-23T17:53:18.744Z,11.65
2022-10-23T17:55:52.521Z,9.88
2022-10-23T17:58:26.290Z,12.73
2022-10-23T18:01:05.595Z,7.72
2022-10-23T18:03:41.395Z,7.50
2022-10-23T18:06:17.752Z,7.90
2022-10-23T18:08:51.733Z,8.18
2022-10-23T18:11:27.378Z,9.82
2022-10-23T18:14:02.129Z,14.38
2022-10-23T18:16:40.417Z,9.55
2022-10-23T18:19:18.014Z,5.03
2022-10-23T18:21:51.773Z,6.35
2022-10-23T18:24:26.462Z,7.78
2022-10-23T18:26:59.902Z,6.57
2022-10-23T18:29:33.657Z,8.63
2022-10-23T18:32:07.319Z,9.93
2022-10-23T18:34:42.483Z,15.38
2022-10-23T18:37:16.140Z,17.23
2022-10-23T18:39:49.958Z,6.38
2022-10-23T18:42:23.520Z,8.30
2022-10-23T18:44:57.326Z,7.95
2022-10-23T18:47:31.332Z,7.40
2022-10-23T18:50:07.539Z,7.65
2022-10-23T18:52:41.203Z,8.88
2022-10-23T18:55:15.404Z,10.40
2022-10-23T18:57:49.136Z,8.52
2022-10-23T19:00:22.928Z,9.95
2022-10-23T19:02:56.613Z,12.00
2022-10-23T19:05:32.114Z,6.95
2022-10-23T19:08:06.163Z,7.30
2022-10-23T19:10:41.668Z,9.80
2022-10-23T19:13:16.950Z,10.18
2022-10-23T19:15:50.685Z,9.13
2022-10-23T19:18:24.211Z,8.10
2022-10-23T19:21:01.435Z,6.32
2022-10-23T19:23:38.202Z,7.25
2022-10-23T19:26:14.080Z,8.23
2022-10-23T19:28:49.185Z,9.38
2022-10-23T19:31:23.428Z,11.18
2022-10-23T19:33:57.000Z,8.00
2022-10-23T19:36:32.889Z,6.90
2022-10-23T19:39:06.628Z,8.02
2022-10-23T19:41:40.424Z,6.30
2022-10-23T19:44:14.554Z,7.47
2022-10-23T19:46:48.661Z,7.20
2022-10-23T19:49:23.811Z,7.43
2022-10-23T19:51:58.995Z,8.80
2022-10-23T19:54:33.127Z,11.32
2022-10-23T19:57:07.175Z,14.02
2022-10-23T19:59:40.891Z,15.35
2022-10-23T20:02:14.737Z,15.30
2022-10-23T20:04:48.663Z,14.80
2022-10-23T20:07:23.780Z,17.20
2022-10-23T20:09:57.300Z,15.65
2022-10-23T20:12:31.046Z,14.13
2022-10-23T20:15:05.066Z,16.10
2022-10-23T20:17:39.043Z,17.02
2022-10-23T20:20:12.669Z,14.43
2022-10-23T20:22:49.978Z,17.02
2022-10-23T20:25:25.589Z,17.38
2022-10-23T20:27:59.316Z,18.63
2022-10-23T20:30:33.211Z,14.95
2022-10-23T20:33:07.093Z,17.17
2022-10-23T20:35:41.218Z,16.17
2022-10-23T20:38:16.383Z,14.43
2022-10-23T20:40:50.025Z,12.38
2022-10-23T20:43:23.828Z,19.50
2022-10-23T20:45:59.387Z,20.98
2022-10-23T20:48:36.251Z,15.32
2022-10-23T20:51:12.578Z,12.13
2022-10-23T20:53:48.236Z,11.32
2022-10-23T20:56:29.963Z,8.80
2022-10-23T20:59:05.968Z,6.18
2022-10-23T21:01:41.565Z,10.40
2022-10-23T21:04:15.374Z,10.50
2022-10-23T21:07:08.914Z,10.80
2022-10-23T21:09:44.888Z,13.60
2022-10-23T21:12:18.441Z,9.57
2022-10-23T21:14:53.955Z,13.43
2022-10-23T21:17:28.434Z,7.25
2022-10-23T21:20:02.316Z,6.68
2022-10-23T21:22:36.286Z,9.27
2022-10-23T21:25:11.804Z,8.60
2022-10-23T21:27:46.570Z,9.40
2022-10-23T21:30:20.441Z,7.43
2022-10-23T21:32:53.964Z,7.00
2022-10-23T21:35:30.036Z,5.07
2022-10-23T21:38:03.763Z,6.53
2022-10-23T21:40:38.941Z,6.75
2022-10-23T21:43:12.510Z,8.75
2022-10-23T21:45:46.220Z,4.82
2022-10-23T21:48:19.638Z,5.38
2022-10-23T21:50:58.153Z,7.15
2022-10-23T21:53:32.022Z,3.85
2022-10-23T21:56:07.762Z,3.35
2022-10-23T21:58:41.454Z,5.82
2022-10-23T22:01:15.232Z,6.50
2022-10-23T22:03:49.878Z,4.75
2022-10-23T22:06:25.280Z,1.88
2022-10-23T22:09:01.091Z,1.95
2022-10-23T22:11:36.432Z,1.50
2022-10-23T22:14:10.005Z,3.60
2022-10-23T22:16:43.832Z,3.40
2022-10-23T22:19:18.781Z,7.45
2022-10-23T22:21:52.709Z,2.30
2022-10-23T22:24:26.385Z,10.50
2022-10-23T22:27:01.530Z,3.65
2022-10-23T22:29:35.205Z,4.15
2022-10-23T22:32:09.102Z,1.70
2022-10-23T22:34:52.232Z,5.75
2022-10-23T22:37:26.659Z,6.32
2022-10-23T22:40:01.110Z,2.78
2022-10-23T22:42:44.594Z,3.95
2022-10-23T22:45:18.984Z,3.50
2022-10-23T22:47:52.907Z,2.58
2022-10-23T22:50:26.459Z,4.43
2022-10-23T22:53:02.820Z,4.45
2022-10-23T22:55:36.650Z,3.67
2022-10-23T22:58:11.979Z,2.70
2022-10-23T23:00:45.894Z,1.52
2022-10-23T23:03:19.686Z,2.03
2022-10-23T23:05:53.323Z,4.85
2022-10-23T23:08:27.498Z,5.05
2022-10-23T23:11:01.341Z,3.47
2022-10-23T23:13:36.617Z,4.47
2022-10-23T23:16:18.828Z,4.50
2022-10-23T23:18:52.883Z,7.65
2022-10-23T23:21:26.862Z,2.95
2022-10-23T23:24:02.828Z,5.47
2022-10-23T23:26:36.398Z,5.22
2022-10-23T23:29:13.590Z,7.55
2022-10-23T23:31:47.183Z,5.50
2022-10-23T23:34:21.047Z,10.10
2022-10-23T23:36:54.825Z,5.32
2022-10-23T23:39:31.384Z,6.45
2022-10-23T23:42:05.188Z,5.07
2022-10-23T23:44:50.202Z,8.63
2022-10-23T23:47:42.484Z,6.47
2022-10-23T23:50:16.743Z,7.28
2022-10-23T23:52:50.295Z,10.77
2022-10-23T23:55:24.008Z,8.02
2022-10-23T23:57:57.650Z,8.75
